LESA/SLM METAR and TAF weather

Enter ICAO airport designator
Station Type Date Time Source
LESA METAR 2020/09/22 17:00 UTC NOAA

LESA 221700Z 28007KT 250V330 CAVOK 21/09 Q1015


Station Type Date Time Source
LESA Decoded METAR 2020/09/22 17:00 UTC NOAA

Salamanca / Matacan, Spain (LESA) 40-57N 005-30W 795M
Sep 22, 2020 - 01:00 PM EDT / 2020.09.22 1700 UTC
Wind: from the W (280 degrees) at 8 MPH (7 KT) (direction variable):0
Visibility: greater than 7 mile(s):0
Temperature: 69 F (21 C)
Dew Point: 48 F (9 C)
Relative Humidity: 46%
Pressure (altimeter): 29.97 in. Hg (1015 hPa)
ob: LESA 221700Z 28007KT 250V330 CAVOK 21/09 Q1015
cycle: 17

Station Type Date Time Source
LESA TAF 2020/09/22 15:30 UTC NOAA

TAF LESA 221400Z 2215/2315 28011KT 9999 SCT030 TX24/2215Z TN10/2306Z
TEMPO 2223/2310 26005KT PROB30
TEMPO 2300/2307 2500 BR BKN005

Example: see airport list